sensor_id;sensor_type;location;lat;lon;timestamp;P1;durP1;ratioP1;P2;durP2;ratioP2
34978;SDS011;21185;50.978;13.720;2023-04-19T00:03:11;16.77;;;7.38;;
34978;SDS011;21185;50.978;13.720;2023-04-19T00:08:13;12.85;;;7.40;;
34978;SDS011;21185;50.978;13.720;2023-04-19T00:13:15;14.88;;;7.40;;
34978;SDS011;21185;50.978;13.720;2023-04-19T00:18:17;13.27;;;6.50;;
34978;SDS011;21185;50.978;13.720;2023-04-19T00:23:19;14.23;;;6.32;;
34978;SDS011;21185;50.978;13.720;2023-04-19T00:28:20;11.85;;;6.47;;
34978;SDS011;21185;50.978;13.720;2023-04-19T00:33:22;10.35;;;5.20;;
34978;SDS011;21185;50.978;13.720;2023-04-19T00:38:24;15.60;;;5.63;;
34978;SDS011;21185;50.978;13.720;2023-04-19T00:43:26;11.50;;;5.35;;
34978;SDS011;21185;50.978;13.720;2023-04-19T00:48:28;13.43;;;5.63;;
34978;SDS011;21185;50.978;13.720;2023-04-19T00:53:31;10.77;;;5.40;;
34978;SDS011;21185;50.978;13.720;2023-04-19T00:58:33;10.88;;;5.45;;
34978;SDS011;21185;50.978;13.720;2023-04-19T01:03:36;9.48;;;4.95;;
34978;SDS011;21185;50.978;13.720;2023-04-19T01:08:39;12.77;;;5.75;;
34978;SDS011;21185;50.978;13.720;2023-04-19T01:13:41;8.90;;;4.82;;
34978;SDS011;21185;50.978;13.720;2023-04-19T01:18:43;8.82;;;4.70;;
34978;SDS011;21185;50.978;13.720;2023-04-19T01:23:45;9.40;;;4.70;;
34978;SDS011;21185;50.978;13.720;2023-04-19T01:28:49;8.52;;;4.07;;
34978;SDS011;21185;50.978;13.720;2023-04-19T01:33:51;9.70;;;4.55;;
34978;SDS011;21185;50.978;13.720;2023-04-19T01:38:52;7.32;;;4.35;;
34978;SDS011;21185;50.978;13.720;2023-04-19T01:43:54;10.48;;;5.05;;
34978;SDS011;21185;50.978;13.720;2023-04-19T01:48:56;8.90;;;4.88;;
34978;SDS011;21185;50.978;13.720;2023-04-19T01:53:58;9.02;;;4.35;;
34978;SDS011;21185;50.978;13.720;2023-04-19T01:59:00;8.32;;;4.57;;
34978;SDS011;21185;50.978;13.720;2023-04-19T02:04:04;10.23;;;5.18;;
34978;SDS011;21185;50.978;13.720;2023-04-19T02:09:06;13.68;;;4.45;;
34978;SDS011;21185;50.978;13.720;2023-04-19T02:14:08;9.23;;;4.75;;
34978;SDS011;21185;50.978;13.720;2023-04-19T02:19:10;10.23;;;5.20;;
34978;SDS011;21185;50.978;13.720;2023-04-19T02:24:12;8.77;;;5.22;;
34978;SDS011;21185;50.978;13.720;2023-04-19T02:29:15;14.43;;;6.18;;
34978;SDS011;21185;50.978;13.720;2023-04-19T02:34:17;10.30;;;5.32;;
34978;SDS011;21185;50.978;13.720;2023-04-19T02:39:19;9.80;;;4.85;;
34978;SDS011;21185;50.978;13.720;2023-04-19T02:44:21;10.00;;;5.45;;
34978;SDS011;21185;50.978;13.720;2023-04-19T02:49:23;11.55;;;5.38;;
34978;SDS011;21185;50.978;13.720;2023-04-19T02:54:25;10.73;;;4.43;;
34978;SDS011;21185;50.978;13.720;2023-04-19T02:59:27;12.35;;;5.45;;
34978;SDS011;21185;50.978;13.720;2023-04-19T03:04:33;11.52;;;5.18;;
34978;SDS011;21185;50.978;13.720;2023-04-19T03:09:35;12.05;;;5.93;;
34978;SDS011;21185;50.978;13.720;2023-04-19T03:14:37;15.48;;;6.28;;
34978;SDS011;21185;50.978;13.720;2023-04-19T03:19:40;11.35;;;5.13;;
34978;SDS011;21185;50.978;13.720;2023-04-19T03:24:41;11.73;;;5.50;;
34978;SDS011;21185;50.978;13.720;2023-04-19T03:29:51;10.43;;;6.10;;
34978;SDS011;21185;50.978;13.720;2023-04-19T03:34:54;14.35;;;5.95;;
34978;SDS011;21185;50.978;13.720;2023-04-19T03:39:56;16.40;;;6.13;;
34978;SDS011;21185;50.978;13.720;2023-04-19T03:45:04;12.60;;;5.93;;
34978;SDS011;21185;50.978;13.720;2023-04-19T03:50:11;11.65;;;5.80;;
34978;SDS011;21185;50.978;13.720;2023-04-19T03:55:16;11.15;;;6.00;;
34978;SDS011;21185;50.978;13.720;2023-04-19T04:00:18;15.40;;;6.13;;
34978;SDS011;21185;50.978;13.720;2023-04-19T04:05:27;12.27;;;6.20;;
34978;SDS011;21185;50.978;13.720;2023-04-19T04:10:29;13.75;;;6.53;;
34978;SDS011;21185;50.978;13.720;2023-04-19T04:15:32;15.38;;;6.53;;
34978;SDS011;21185;50.978;13.720;2023-04-19T04:20:34;16.13;;;7.45;;
34978;SDS011;21185;50.978;13.720;2023-04-19T04:25:40;17.85;;;7.95;;
34978;SDS011;21185;50.978;13.720;2023-04-19T04:30:46;15.98;;;6.32;;
34978;SDS011;21185;50.978;13.720;2023-04-19T04:35:49;12.10;;;6.57;;
34978;SDS011;21185;50.978;13.720;2023-04-19T04:40:55;13.82;;;7.28;;
34978;SDS011;21185;50.978;13.720;2023-04-19T04:45:58;10.38;;;6.05;;
34978;SDS011;21185;50.978;13.720;2023-04-19T04:51:05;13.40;;;5.97;;
34978;SDS011;21185;50.978;13.720;2023-04-19T04:56:09;12.50;;;5.72;;
34978;SDS011;21185;50.978;13.720;2023-04-19T05:01:11;12.05;;;5.63;;
34978;SDS011;21185;50.978;13.720;2023-04-19T05:06:15;13.30;;;4.45;;
34978;SDS011;21185;50.978;13.720;2023-04-19T05:11:18;10.73;;;5.05;;
34978;SDS011;21185;50.978;13.720;2023-04-19T05:16:21;10.18;;;4.50;;
34978;SDS011;21185;50.978;13.720;2023-04-19T05:21:23;9.32;;;4.55;;
34978;SDS011;21185;50.978;13.720;2023-04-19T05:26:26;7.68;;;4.00;;
34978;SDS011;21185;50.978;13.720;2023-04-19T05:31:28;9.48;;;4.22;;
34978;SDS011;21185;50.978;13.720;2023-04-19T05:36:52;6.93;;;3.88;;
34978;SDS011;21185;50.978;13.720;2023-04-19T05:41:54;4.65;;;2.88;;
34978;SDS011;21185;50.978;13.720;2023-04-19T05:46:56;5.70;;;2.72;;
34978;SDS011;21185;50.978;13.720;2023-04-19T05:52:18;13.85;;;3.20;;
34978;SDS011;21185;50.978;13.720;2023-04-19T05:57:24;6.80;;;3.13;;
34978;SDS011;21185;50.978;13.720;2023-04-19T06:02:26;4.32;;;2.53;;
34978;SDS011;21185;50.978;13.720;2023-04-19T06:07:29;10.45;;;2.78;;
34978;SDS011;21185;50.978;13.720;2023-04-19T06:12:38;4.05;;;2.20;;
34978;SDS011;21185;50.978;13.720;2023-04-19T06:17:40;3.35;;;2.20;;
34978;SDS011;21185;50.978;13.720;2023-04-19T06:22:45;3.90;;;2.58;;
34978;SDS011;21185;50.978;13.720;2023-04-19T06:27:49;4.68;;;1.90;;
34978;SDS011;21185;50.978;13.720;2023-04-19T06:32:51;3.05;;;2.17;;
34978;SDS011;21185;50.978;13.720;2023-04-19T06:37:53;2.95;;;1.77;;
34978;SDS011;21185;50.978;13.720;2023-04-19T06:42:55;5.13;;;2.28;;
34978;SDS011;21185;50.978;13.720;2023-04-19T06:47:57;9.13;;;2.22;;
34978;SDS011;21185;50.978;13.720;2023-04-19T06:52:58;9.27;;;1.90;;
34978;SDS011;21185;50.978;13.720;2023-04-19T06:58:02;10.02;;;1.98;;
34978;SDS011;21185;50.978;13.720;2023-04-19T07:03:04;5.22;;;1.90;;
34978;SDS011;21185;50.978;13.720;2023-04-19T07:08:06;11.00;;;3.95;;
34978;SDS011;21185;50.978;13.720;2023-04-19T07:13:11;5.13;;;2.08;;
34978;SDS011;21185;50.978;13.720;2023-04-19T07:18:14;5.32;;;1.98;;
34978;SDS011;21185;50.978;13.720;2023-04-19T07:23:16;3.42;;;1.92;;
34978;SDS011;21185;50.978;13.720;2023-04-19T07:28:18;3.05;;;1.83;;
34978;SDS011;21185;50.978;13.720;2023-04-19T07:33:21;5.93;;;1.98;;
34978;SDS011;21185;50.978;13.720;2023-04-19T07:38:28;9.75;;;2.58;;
34978;SDS011;21185;50.978;13.720;2023-04-19T07:43:31;5.28;;;1.85;;
34978;SDS011;21185;50.978;13.720;2023-04-19T07:48:33;2.70;;;1.67;;
34978;SDS011;21185;50.978;13.720;2023-04-19T07:53:36;3.25;;;1.80;;
34978;SDS011;21185;50.978;13.720;2023-04-19T07:58:40;5.55;;;2.00;;
34978;SDS011;21185;50.978;13.720;2023-04-19T08:03:44;3.50;;;1.80;;
34978;SDS011;21185;50.978;13.720;2023-04-19T08:08:47;4.28;;;2.83;;
34978;SDS011;21185;50.978;13.720;2023-04-19T08:13:50;3.28;;;1.83;;
34978;SDS011;21185;50.978;13.720;2023-04-19T08:19:12;3.13;;;1.80;;
34978;SDS011;21185;50.978;13.720;2023-04-19T08:24:14;8.05;;;2.28;;
34978;SDS011;21185;50.978;13.720;2023-04-19T08:29:16;10.05;;;3.33;;
34978;SDS011;21185;50.978;13.720;2023-04-19T08:34:19;2.65;;;1.70;;
34978;SDS011;21185;50.978;13.720;2023-04-19T08:39:21;4.47;;;2.00;;
34978;SDS011;21185;50.978;13.720;2023-04-19T08:44:35;7.43;;;2.58;;
34978;SDS011;21185;50.978;13.720;2023-04-19T08:50:05;5.87;;;2.13;;
34978;SDS011;21185;50.978;13.720;2023-04-19T08:55:29;8.43;;;2.90;;
34978;SDS011;21185;50.978;13.720;2023-04-19T09:00:32;8.05;;;2.08;;
34978;SDS011;21185;50.978;13.720;2023-04-19T09:05:37;3.55;;;2.13;;
34978;SDS011;21185;50.978;13.720;2023-04-19T09:10:46;5.55;;;2.28;;
34978;SDS011;21185;50.978;13.720;2023-04-19T09:16:00;5.97;;;2.85;;
34978;SDS011;21185;50.978;13.720;2023-04-19T09:21:02;3.63;;;1.90;;
34978;SDS011;21185;50.978;13.720;2023-04-19T09:26:05;3.53;;;2.03;;
34978;SDS011;21185;50.978;13.720;2023-04-19T09:31:24;4.65;;;2.20;;
34978;SDS011;21185;50.978;13.720;2023-04-19T09:36:47;5.28;;;2.83;;
34978;SDS011;21185;50.978;13.720;2023-04-19T09:42:01;5.35;;;2.70;;
34978;SDS011;21185;50.978;13.720;2023-04-19T09:47:21;5.53;;;2.58;;
34978;SDS011;21185;50.978;13.720;2023-04-19T09:52:24;22.38;;;3.45;;
34978;SDS011;21185;50.978;13.720;2023-04-19T09:57:29;8.77;;;2.83;;
34978;SDS011;21185;50.978;13.720;2023-04-19T10:02:33;6.85;;;2.90;;
34978;SDS011;21185;50.978;13.720;2023-04-19T10:07:37;7.50;;;2.90;;
34978;SDS011;21185;50.978;13.720;2023-04-19T10:12:39;6.60;;;2.10;;
34978;SDS011;21185;50.978;13.720;2023-04-19T10:18:02;3.20;;;1.77;;
34978;SDS011;21185;50.978;13.720;2023-04-19T10:23:06;3.90;;;2.22;;
34978;SDS011;21185;50.978;13.720;2023-04-19T10:28:10;5.35;;;2.55;;
34978;SDS011;21185;50.978;13.720;2023-04-19T10:33:12;3.70;;;2.53;;
34978;SDS011;21185;50.978;13.720;2023-04-19T10:48:59;5.97;;;2.60;;
34978;SDS011;21185;50.978;13.720;2023-04-19T10:54:06;7.00;;;2.47;;
34978;SDS011;21185;50.978;13.720;2023-04-19T10:59:32;4.55;;;2.38;;
34978;SDS011;21185;50.978;13.720;2023-04-19T11:09:38;3.97;;;2.25;;
34978;SDS011;21185;50.978;13.720;2023-04-19T11:30:21;4.30;;;1.92;;
34978;SDS011;21185;50.978;13.720;2023-04-19T11:35:31;3.92;;;1.70;;
34978;SDS011;21185;50.978;13.720;2023-04-19T11:40:33;4.38;;;2.00;;
34978;SDS011;21185;50.978;13.720;2023-04-19T11:45:36;4.75;;;2.17;;
34978;SDS011;21185;50.978;13.720;2023-04-19T11:50:41;5.82;;;2.38;;
34978;SDS011;21185;50.978;13.720;2023-04-19T11:55:49;4.25;;;2.10;;
34978;SDS011;21185;50.978;13.720;2023-04-19T12:01:06;4.35;;;2.20;;
34978;SDS011;21185;50.978;13.720;2023-04-19T12:06:10;6.10;;;2.10;;
34978;SDS011;21185;50.978;13.720;2023-04-19T12:11:16;2.28;;;1.70;;
34978;SDS011;21185;50.978;13.720;2023-04-19T12:16:26;3.97;;;2.58;;
34978;SDS011;21185;50.978;13.720;2023-04-19T12:21:30;5.50;;;1.92;;
34978;SDS011;21185;50.978;13.720;2023-04-19T12:26:33;4.68;;;2.25;;
34978;SDS011;21185;50.978;13.720;2023-04-19T12:31:36;8.45;;;2.47;;
34978;SDS011;21185;50.978;13.720;2023-04-19T12:36:38;3.35;;;2.38;;
34978;SDS011;21185;50.978;13.720;2023-04-19T12:41:40;5.30;;;2.50;;
34978;SDS011;21185;50.978;13.720;2023-04-19T12:46:42;2.70;;;2.05;;
34978;SDS011;21185;50.978;13.720;2023-04-19T12:51:44;3.80;;;1.75;;
34978;SDS011;21185;50.978;13.720;2023-04-19T12:56:48;4.75;;;2.05;;
34978;SDS011;21185;50.978;13.720;2023-04-19T13:01:51;6.38;;;2.20;;
34978;SDS011;21185;50.978;13.720;2023-04-19T13:06:52;6.13;;;2.42;;
34978;SDS011;21185;50.978;13.720;2023-04-19T13:11:55;3.97;;;2.50;;
34978;SDS011;21185;50.978;13.720;2023-04-19T13:16:58;5.00;;;2.25;;
34978;SDS011;21185;50.978;13.720;2023-04-19T13:22:00;14.82;;;3.78;;
34978;SDS011;21185;50.978;13.720;2023-04-19T13:27:02;61.83;;;9.30;;
34978;SDS011;21185;50.978;13.720;2023-04-19T13:32:06;5.05;;;2.50;;
34978;SDS011;21185;50.978;13.720;2023-04-19T13:37:12;11.07;;;2.40;;
34978;SDS011;21185;50.978;13.720;2023-04-19T13:42:16;4.15;;;2.25;;
34978;SDS011;21185;50.978;13.720;2023-04-19T13:47:20;4.63;;;2.40;;
34978;SDS011;21185;50.978;13.720;2023-04-19T13:52:22;10.13;;;2.58;;
34978;SDS011;21185;50.978;13.720;2023-04-19T13:57:24;4.13;;;2.60;;
34978;SDS011;21185;50.978;13.720;2023-04-19T14:02:26;3.67;;;1.92;;
34978;SDS011;21185;50.978;13.720;2023-04-19T14:07:29;4.45;;;2.13;;
34978;SDS011;21185;50.978;13.720;2023-04-19T14:12:30;4.55;;;2.40;;
34978;SDS011;21185;50.978;13.720;2023-04-19T14:17:32;4.57;;;2.53;;
34978;SDS011;21185;50.978;13.720;2023-04-19T14:22:36;5.18;;;2.83;;
34978;SDS011;21185;50.978;13.720;2023-04-19T14:27:39;12.10;;;2.00;;
34978;SDS011;21185;50.978;13.720;2023-04-19T14:32:42;6.68;;;2.78;;
34978;SDS011;21185;50.978;13.720;2023-04-19T14:37:44;5.93;;;2.70;;
34978;SDS011;21185;50.978;13.720;2023-04-19T14:42:46;9.68;;;3.63;;
34978;SDS011;21185;50.978;13.720;2023-04-19T14:47:48;8.65;;;3.28;;
34978;SDS011;21185;50.978;13.720;2023-04-19T14:52:50;6.03;;;2.88;;
34978;SDS011;21185;50.978;13.720;2023-04-19T14:57:51;3.75;;;2.40;;
34978;SDS011;21185;50.978;13.720;2023-04-19T15:02:53;5.28;;;2.88;;
34978;SDS011;21185;50.978;13.720;2023-04-19T15:07:55;3.47;;;1.95;;
34978;SDS011;21185;50.978;13.720;2023-04-19T15:12:57;4.78;;;2.53;;
34978;SDS011;21185;50.978;13.720;2023-04-19T15:18:00;6.05;;;2.15;;
34978;SDS011;21185;50.978;13.720;2023-04-19T15:23:02;3.90;;;2.38;;
34978;SDS011;21185;50.978;13.720;2023-04-19T15:28:04;8.98;;;2.80;;
34978;SDS011;21185;50.978;13.720;2023-04-19T15:33:06;3.65;;;2.50;;
34978;SDS011;21185;50.978;13.720;2023-04-19T15:38:08;5.18;;;2.85;;
34978;SDS011;21185;50.978;13.720;2023-04-19T15:43:10;3.83;;;2.33;;
34978;SDS011;21185;50.978;13.720;2023-04-19T15:48:12;3.83;;;2.53;;
34978;SDS011;21185;50.978;13.720;2023-04-19T15:53:14;5.10;;;2.90;;
34978;SDS011;21185;50.978;13.720;2023-04-19T15:58:16;5.80;;;3.05;;
34978;SDS011;21185;50.978;13.720;2023-04-19T16:03:18;3.58;;;2.63;;
34978;SDS011;21185;50.978;13.720;2023-04-19T16:08:20;4.57;;;2.83;;
34978;SDS011;21185;50.978;13.720;2023-04-19T16:13:22;4.15;;;2.67;;
34978;SDS011;21185;50.978;13.720;2023-04-19T16:18:24;4.50;;;2.72;;
34978;SDS011;21185;50.978;13.720;2023-04-19T16:23:29;5.30;;;3.03;;
34978;SDS011;21185;50.978;13.720;2023-04-19T16:28:30;5.40;;;3.30;;
34978;SDS011;21185;50.978;13.720;2023-04-19T16:33:32;7.55;;;3.80;;
34978;SDS011;21185;50.978;13.720;2023-04-19T16:38:34;5.30;;;3.20;;
34978;SDS011;21185;50.978;13.720;2023-04-19T16:43:36;8.18;;;3.22;;
34978;SDS011;21185;50.978;13.720;2023-04-19T16:48:38;9.50;;;3.63;;
34978;SDS011;21185;50.978;13.720;2023-04-19T16:53:40;7.18;;;3.47;;
34978;SDS011;21185;50.978;13.720;2023-04-19T16:58:44;5.93;;;2.95;;
34978;SDS011;21185;50.978;13.720;2023-04-19T17:03:46;3.33;;;2.47;;
34978;SDS011;21185;50.978;13.720;2023-04-19T17:08:49;4.88;;;2.92;;
34978;SDS011;21185;50.978;13.720;2023-04-19T17:13:51;4.85;;;3.10;;
34978;SDS011;21185;50.978;13.720;2023-04-19T17:18:57;5.10;;;3.03;;
34978;SDS011;21185;50.978;13.720;2023-04-19T17:23:58;6.07;;;3.13;;
34978;SDS011;21185;50.978;13.720;2023-04-19T17:29:02;5.60;;;2.80;;
34978;SDS011;21185;50.978;13.720;2023-04-19T17:34:04;4.95;;;3.20;;
34978;SDS011;21185;50.978;13.720;2023-04-19T17:39:06;6.50;;;4.05;;
34978;SDS011;21185;50.978;13.720;2023-04-19T17:44:09;4.32;;;2.72;;
34978;SDS011;21185;50.978;13.720;2023-04-19T17:49:11;6.10;;;3.35;;
34978;SDS011;21185;50.978;13.720;2023-04-19T17:54:13;7.25;;;3.80;;
34978;SDS011;21185;50.978;13.720;2023-04-19T17:59:16;7.53;;;3.25;;
34978;SDS011;21185;50.978;13.720;2023-04-19T18:04:18;6.32;;;3.38;;
34978;SDS011;21185;50.978;13.720;2023-04-19T18:09:20;8.32;;;3.22;;
34978;SDS011;21185;50.978;13.720;2023-04-19T18:14:22;5.13;;;3.28;;
34978;SDS011;21185;50.978;13.720;2023-04-19T18:19:24;4.50;;;2.83;;
34978;SDS011;21185;50.978;13.720;2023-04-19T18:24:28;6.30;;;3.47;;
34978;SDS011;21185;50.978;13.720;2023-04-19T18:29:29;5.70;;;3.10;;
34978;SDS011;21185;50.978;13.720;2023-04-19T18:34:31;5.88;;;2.88;;
34978;SDS011;21185;50.978;13.720;2023-04-19T18:39:33;5.07;;;3.20;;
34978;SDS011;21185;50.978;13.720;2023-04-19T18:44:36;4.70;;;2.47;;
34978;SDS011;21185;50.978;13.720;2023-04-19T18:49:54;5.53;;;2.60;;
34978;SDS011;21185;50.978;13.720;2023-04-19T18:55:06;6.97;;;3.53;;
34978;SDS011;21185;50.978;13.720;2023-04-19T19:00:09;5.18;;;2.50;;
34978;SDS011;21185;50.978;13.720;2023-04-19T19:05:11;6.32;;;3.28;;
34978;SDS011;21185;50.978;13.720;2023-04-19T19:10:16;7.75;;;3.85;;
34978;SDS011;21185;50.978;13.720;2023-04-19T19:15:22;7.80;;;3.70;;
34978;SDS011;21185;50.978;13.720;2023-04-19T19:20:24;4.72;;;2.60;;
34978;SDS011;21185;50.978;13.720;2023-04-19T19:25:26;6.57;;;3.22;;
34978;SDS011;21185;50.978;13.720;2023-04-19T19:30:28;5.70;;;3.13;;
34978;SDS011;21185;50.978;13.720;2023-04-19T19:35:34;5.55;;;2.95;;
34978;SDS011;21185;50.978;13.720;2023-04-19T19:40:36;4.22;;;2.60;;
34978;SDS011;21185;50.978;13.720;2023-04-19T19:45:58;3.40;;;2.05;;
34978;SDS011;21185;50.978;13.720;2023-04-19T19:51:05;4.95;;;2.50;;
34978;SDS011;21185;50.978;13.720;2023-04-19T19:56:27;4.10;;;2.50;;
34978;SDS011;21185;50.978;13.720;2023-04-19T20:01:29;4.47;;;2.78;;
34978;SDS011;21185;50.978;13.720;2023-04-19T20:06:32;7.28;;;2.60;;
34978;SDS011;21185;50.978;13.720;2023-04-19T20:11:37;6.22;;;2.88;;
34978;SDS011;21185;50.978;13.720;2023-04-19T20:16:39;7.00;;;3.00;;
34978;SDS011;21185;50.978;13.720;2023-04-19T20:21:40;4.30;;;2.40;;
34978;SDS011;21185;50.978;13.720;2023-04-19T20:26:42;3.70;;;2.40;;
34978;SDS011;21185;50.978;13.720;2023-04-19T20:31:44;4.15;;;2.38;;
34978;SDS011;21185;50.978;13.720;2023-04-19T20:36:46;7.90;;;3.03;;
34978;SDS011;21185;50.978;13.720;2023-04-19T20:41:48;3.20;;;2.20;;
34978;SDS011;21185;50.978;13.720;2023-04-19T20:46:52;4.43;;;2.38;;
34978;SDS011;21185;50.978;13.720;2023-04-19T20:51:53;3.22;;;2.15;;
34978;SDS011;21185;50.978;13.720;2023-04-19T20:56:58;3.95;;;2.20;;
34978;SDS011;21185;50.978;13.720;2023-04-19T21:02:02;4.68;;;2.53;;
34978;SDS011;21185;50.978;13.720;2023-04-19T21:07:04;5.80;;;2.38;;
34978;SDS011;21185;50.978;13.720;2023-04-19T21:12:06;2.78;;;2.17;;
34978;SDS011;21185;50.978;13.720;2023-04-19T21:17:08;3.60;;;2.00;;
34978;SDS011;21185;50.978;13.720;2023-04-19T21:22:10;3.70;;;2.20;;
34978;SDS011;21185;50.978;13.720;2023-04-19T21:27:12;3.65;;;1.90;;
34978;SDS011;21185;50.978;13.720;2023-04-19T21:32:13;3.70;;;2.40;;
34978;SDS011;21185;50.978;13.720;2023-04-19T21:37:15;4.90;;;2.50;;
34978;SDS011;21185;50.978;13.720;2023-04-19T21:42:19;2.85;;;1.95;;
34978;SDS011;21185;50.978;13.720;2023-04-19T21:47:21;3.53;;;2.33;;
34978;SDS011;21185;50.978;13.720;2023-04-19T21:52:23;2.58;;;2.00;;
34978;SDS011;21185;50.978;13.720;2023-04-19T21:57:24;3.25;;;2.13;;
34978;SDS011;21185;50.978;13.720;2023-04-19T22:02:27;4.05;;;2.38;;
34978;SDS011;21185;50.978;13.720;2023-04-19T22:07:29;5.30;;;2.17;;
34978;SDS011;21185;50.978;13.720;2023-04-19T22:12:32;3.55;;;2.53;;
34978;SDS011;21185;50.978;13.720;2023-04-19T22:17:35;3.85;;;2.20;;
34978;SDS011;21185;50.978;13.720;2023-04-19T22:22:41;3.92;;;2.33;;
34978;SDS011;21185;50.978;13.720;2023-04-19T22:27:42;6.82;;;2.95;;
34978;SDS011;21185;50.978;13.720;2023-04-19T22:32:46;3.53;;;2.35;;
34978;SDS011;21185;50.978;13.720;2023-04-19T22:37:48;3.92;;;2.55;;
34978;SDS011;21185;50.978;13.720;2023-04-19T22:42:49;6.40;;;2.63;;
34978;SDS011;21185;50.978;13.720;2023-04-19T22:47:51;5.70;;;3.03;;
34978;SDS011;21185;50.978;13.720;2023-04-19T22:52:53;4.55;;;2.72;;
34978;SDS011;21185;50.978;13.720;2023-04-19T22:57:55;4.45;;;2.47;;
34978;SDS011;21185;50.978;13.720;2023-04-19T23:02:57;4.78;;;2.72;;
34978;SDS011;21185;50.978;13.720;2023-04-19T23:07:59;4.40;;;2.70;;
34978;SDS011;21185;50.978;13.720;2023-04-19T23:13:03;4.07;;;2.42;;
34978;SDS011;21185;50.978;13.720;2023-04-19T23:18:06;4.15;;;2.80;;
34978;SDS011;21185;50.978;13.720;2023-04-19T23:23:08;4.28;;;2.40;;
34978;SDS011;21185;50.978;13.720;2023-04-19T23:28:09;7.13;;;3.35;;
34978;SDS011;21185;50.978;13.720;2023-04-19T23:33:13;3.50;;;2.28;;
34978;SDS011;21185;50.978;13.720;2023-04-19T23:38:14;4.03;;;2.75;;
34978;SDS011;21185;50.978;13.720;2023-04-19T23:43:17;6.45;;;3.10;;
34978;SDS011;21185;50.978;13.720;2023-04-19T23:48:18;4.97;;;2.60;;
34978;SDS011;21185;50.978;13.720;2023-04-19T23:53:20;3.53;;;2.40;;
34978;SDS011;21185;50.978;13.720;2023-04-19T23:58:22;4.28;;;2.40;;
